Terminal Aerodrome Forecast
Issued by NWS

Home | Current Version | Previous Version | Text Only | Print | Product List | Glossary On
Versions: 1 2 3 4 5 6 7 8 9 10 11 12 13 14 15 16 17 18 19 20 21 22 23 24
000
FTUS41 KCAR 202011 AAA
TAFHUL
TAF AMD
KHUL 202011Z 2020/2118 10004KT 5SM -RA BR OVC035
     FM202200 12007KT 3SM BR OVC015
     FM210400 13008KT 2SM -RA BR OVC004
     FM211300 18007KT 3SM BR OVC004=

USA.gov is the U.S. government's official web portal to all federal, state and local government web resources and services.